sensor_id;sensor_type;location;lat;lon;timestamp;P1;durP1;ratioP1;P2;durP2;ratioP2
1987;SDS011;12775;46.994;15.498;2023-07-31T00:01:27;2.76;;;2.08;;
1987;SDS011;12775;46.994;15.498;2023-07-31T00:03:54;3.60;;;2.34;;
1987;SDS011;12775;46.994;15.498;2023-07-31T00:06:21;2.90;;;2.48;;
1987;SDS011;12775;46.994;15.498;2023-07-31T00:08:47;4.78;;;2.38;;
1987;SDS011;12775;46.994;15.498;2023-07-31T00:11:14;3.10;;;2.10;;
1987;SDS011;12775;46.994;15.498;2023-07-31T00:13:41;2.76;;;2.08;;
1987;SDS011;12775;46.994;15.498;2023-07-31T00:16:07;3.62;;;2.48;;
1987;SDS011;12775;46.994;15.498;2023-07-31T00:18:34;3.34;;;2.40;;
1987;SDS011;12775;46.994;15.498;2023-07-31T00:21:00;3.44;;;2.22;;
1987;SDS011;12775;46.994;15.498;2023-07-31T00:23:27;2.82;;;2.48;;
1987;SDS011;12775;46.994;15.498;2023-07-31T00:25:54;4.52;;;2.08;;
1987;SDS011;12775;46.994;15.498;2023-07-31T00:28:20;2.58;;;2.38;;
1987;SDS011;12775;46.994;15.498;2023-07-31T00:30:47;3.26;;;2.42;;
1987;SDS011;12775;46.994;15.498;2023-07-31T00:33:13;1.96;;;1.76;;
1987;SDS011;12775;46.994;15.498;2023-07-31T00:35:40;4.18;;;2.22;;
1987;SDS011;12775;46.994;15.498;2023-07-31T00:38:06;3.26;;;2.36;;
1987;SDS011;12775;46.994;15.498;2023-07-31T00:40:34;5.26;;;2.30;;
1987;SDS011;12775;46.994;15.498;2023-07-31T00:43:00;2.88;;;2.48;;
1987;SDS011;12775;46.994;15.498;2023-07-31T00:45:27;2.58;;;1.98;;
1987;SDS011;12775;46.994;15.498;2023-07-31T00:47:55;4.18;;;2.74;;
1987;SDS011;12775;46.994;15.498;2023-07-31T00:50:23;4.12;;;2.62;;
1987;SDS011;12775;46.994;15.498;2023-07-31T00:52:49;4.20;;;2.66;;
1987;SDS011;12775;46.994;15.498;2023-07-31T00:55:15;4.76;;;2.58;;
1987;SDS011;12775;46.994;15.498;2023-07-31T00:57:42;6.66;;;2.90;;
1987;SDS011;12775;46.994;15.498;2023-07-31T01:00:09;5.08;;;3.04;;
1987;SDS011;12775;46.994;15.498;2023-07-31T01:02:36;2.96;;;2.62;;
1987;SDS011;12775;46.994;15.498;2023-07-31T01:05:02;4.30;;;2.88;;
1987;SDS011;12775;46.994;15.498;2023-07-31T01:07:31;6.48;;;3.64;;
1987;SDS011;12775;46.994;15.498;2023-07-31T01:10:03;5.74;;;2.58;;
1987;SDS011;12775;46.994;15.498;2023-07-31T01:12:30;4.76;;;2.46;;
1987;SDS011;12775;46.994;15.498;2023-07-31T01:15:02;8.22;;;3.28;;
1987;SDS011;12775;46.994;15.498;2023-07-31T01:17:29;4.54;;;3.64;;
1987;SDS011;12775;46.994;15.498;2023-07-31T01:19:55;4.74;;;3.70;;
1987;SDS011;12775;46.994;15.498;2023-07-31T01:22:29;6.90;;;4.00;;
1987;SDS011;12775;46.994;15.498;2023-07-31T01:27:53;6.30;;;4.94;;
1987;SDS011;12775;46.994;15.498;2023-07-31T01:30:26;7.86;;;4.50;;
1987;SDS011;12775;46.994;15.498;2023-07-31T01:32:52;4.92;;;4.12;;
1987;SDS011;12775;46.994;15.498;2023-07-31T01:35:20;5.34;;;4.32;;
1987;SDS011;12775;46.994;15.498;2023-07-31T01:37:47;4.88;;;3.86;;
1987;SDS011;12775;46.994;15.498;2023-07-31T01:40:14;4.32;;;3.92;;
1987;SDS011;12775;46.994;15.498;2023-07-31T01:42:40;5.16;;;4.46;;
1987;SDS011;12775;46.994;15.498;2023-07-31T01:45:08;5.10;;;4.02;;
1987;SDS011;12775;46.994;15.498;2023-07-31T01:47:35;6.06;;;5.36;;
1987;SDS011;12775;46.994;15.498;2023-07-31T01:50:01;6.20;;;4.98;;
1987;SDS011;12775;46.994;15.498;2023-07-31T01:52:28;12.20;;;6.50;;
1987;SDS011;12775;46.994;15.498;2023-07-31T01:54:54;9.66;;;6.74;;
1987;SDS011;12775;46.994;15.498;2023-07-31T01:57:21;5.16;;;4.30;;
1987;SDS011;12775;46.994;15.498;2023-07-31T01:59:48;4.06;;;3.66;;
1987;SDS011;12775;46.994;15.498;2023-07-31T02:02:14;6.50;;;3.26;;
1987;SDS011;12775;46.994;15.498;2023-07-31T02:04:41;5.38;;;3.26;;
1987;SDS011;12775;46.994;15.498;2023-07-31T02:07:08;3.92;;;3.52;;
1987;SDS011;12775;46.994;15.498;2023-07-31T02:09:36;3.12;;;2.82;;
1987;SDS011;12775;46.994;15.498;2023-07-31T02:12:02;3.72;;;2.66;;
1987;SDS011;12775;46.994;15.498;2023-07-31T02:14:30;3.38;;;2.44;;
1987;SDS011;12775;46.994;15.498;2023-07-31T02:16:57;3.32;;;2.24;;
1987;SDS011;12775;46.994;15.498;2023-07-31T02:19:23;6.00;;;2.50;;
1987;SDS011;12775;46.994;15.498;2023-07-31T02:21:50;7.40;;;2.36;;
1987;SDS011;12775;46.994;15.498;2023-07-31T02:24:16;2.22;;;1.96;;
1987;SDS011;12775;46.994;15.498;2023-07-31T02:26:43;4.08;;;2.48;;
1987;SDS011;12775;46.994;15.498;2023-07-31T02:29:10;2.68;;;2.34;;
1987;SDS011;12775;46.994;15.498;2023-07-31T02:31:36;3.28;;;2.24;;
1987;SDS011;12775;46.994;15.498;2023-07-31T02:34:03;2.18;;;1.98;;
1987;SDS011;12775;46.994;15.498;2023-07-31T02:36:29;5.78;;;1.84;;
1987;SDS011;12775;46.994;15.498;2023-07-31T02:38:56;3.64;;;2.50;;
1987;SDS011;12775;46.994;15.498;2023-07-31T02:41:23;2.18;;;1.66;;
1987;SDS011;12775;46.994;15.498;2023-07-31T02:43:50;1.88;;;1.74;;
1987;SDS011;12775;46.994;15.498;2023-07-31T02:46:17;5.48;;;1.92;;
1987;SDS011;12775;46.994;15.498;2023-07-31T02:48:43;3.06;;;2.32;;
1987;SDS011;12775;46.994;15.498;2023-07-31T02:51:10;2.46;;;2.26;;
1987;SDS011;12775;46.994;15.498;2023-07-31T02:53:36;1.76;;;1.60;;
1987;SDS011;12775;46.994;15.498;2023-07-31T02:56:03;3.18;;;1.82;;
1987;SDS011;12775;46.994;15.498;2023-07-31T02:58:30;3.04;;;2.12;;
1987;SDS011;12775;46.994;15.498;2023-07-31T03:00:58;3.86;;;2.76;;
1987;SDS011;12775;46.994;15.498;2023-07-31T03:03:23;3.62;;;2.52;;
1987;SDS011;12775;46.994;15.498;2023-07-31T03:05:49;5.58;;;3.62;;
1987;SDS011;12775;46.994;15.498;2023-07-31T03:08:16;3.22;;;2.68;;
1987;SDS011;12775;46.994;15.498;2023-07-31T03:10:43;5.16;;;4.66;;
1987;SDS011;12775;46.994;15.498;2023-07-31T03:13:09;5.86;;;3.50;;
1987;SDS011;12775;46.994;15.498;2023-07-31T03:15:36;7.36;;;3.00;;
1987;SDS011;12775;46.994;15.498;2023-07-31T03:18:03;3.72;;;3.42;;
1987;SDS011;12775;46.994;15.498;2023-07-31T03:20:29;3.32;;;3.02;;
1987;SDS011;12775;46.994;15.498;2023-07-31T03:22:56;10.58;;;2.86;;
1987;SDS011;12775;46.994;15.498;2023-07-31T03:25:22;6.72;;;2.58;;
1987;SDS011;12775;46.994;15.498;2023-07-31T03:27:49;3.38;;;2.30;;
1987;SDS011;12775;46.994;15.498;2023-07-31T03:30:16;2.88;;;1.74;;
1987;SDS011;12775;46.994;15.498;2023-07-31T03:32:42;3.16;;;2.70;;
1987;SDS011;12775;46.994;15.498;2023-07-31T03:35:09;3.84;;;2.84;;
1987;SDS011;12775;46.994;15.498;2023-07-31T03:37:35;9.24;;;3.32;;
1987;SDS011;12775;46.994;15.498;2023-07-31T03:40:02;3.96;;;2.98;;
1987;SDS011;12775;46.994;15.498;2023-07-31T03:42:29;2.90;;;2.62;;
1987;SDS011;12775;46.994;15.498;2023-07-31T03:44:55;3.24;;;2.94;;
1987;SDS011;12775;46.994;15.498;2023-07-31T03:47:22;3.42;;;2.96;;
1987;SDS011;12775;46.994;15.498;2023-07-31T03:49:50;3.70;;;2.50;;
1987;SDS011;12775;46.994;15.498;2023-07-31T03:52:16;2.56;;;2.36;;
1987;SDS011;12775;46.994;15.498;2023-07-31T03:54:44;3.12;;;2.24;;
1987;SDS011;12775;46.994;15.498;2023-07-31T03:57:10;2.14;;;1.88;;
1987;SDS011;12775;46.994;15.498;2023-07-31T03:59:37;3.16;;;2.60;;
1987;SDS011;12775;46.994;15.498;2023-07-31T04:02:04;2.82;;;2.54;;
1987;SDS011;12775;46.994;15.498;2023-07-31T04:04:31;7.62;;;2.38;;
1987;SDS011;12775;46.994;15.498;2023-07-31T04:06:58;5.04;;;3.18;;
1987;SDS011;12775;46.994;15.498;2023-07-31T04:09:24;12.70;;;5.36;;
1987;SDS011;12775;46.994;15.498;2023-07-31T04:11:51;6.22;;;3.92;;
1987;SDS011;12775;46.994;15.498;2023-07-31T04:14:18;15.34;;;3.94;;
1987;SDS011;12775;46.994;15.498;2023-07-31T04:16:45;18.94;;;4.74;;
1987;SDS011;12775;46.994;15.498;2023-07-31T04:19:11;11.24;;;4.30;;
1987;SDS011;12775;46.994;15.498;2023-07-31T04:21:38;9.26;;;3.94;;
1987;SDS011;12775;46.994;15.498;2023-07-31T04:24:05;19.30;;;4.36;;
1987;SDS011;12775;46.994;15.498;2023-07-31T04:26:32;10.40;;;3.32;;
1987;SDS011;12775;46.994;15.498;2023-07-31T04:28:59;14.28;;;3.72;;
1987;SDS011;12775;46.994;15.498;2023-07-31T04:31:25;10.04;;;3.60;;
1987;SDS011;12775;46.994;15.498;2023-07-31T04:33:52;25.32;;;4.30;;
1987;SDS011;12775;46.994;15.498;2023-07-31T04:36:18;20.92;;;4.02;;
1987;SDS011;12775;46.994;15.498;2023-07-31T04:38:45;8.92;;;3.62;;
1987;SDS011;12775;46.994;15.498;2023-07-31T04:41:12;3.52;;;3.06;;
1987;SDS011;12775;46.994;15.498;2023-07-31T04:43:38;28.32;;;4.60;;
1987;SDS011;12775;46.994;15.498;2023-07-31T04:46:05;9.02;;;3.36;;
1987;SDS011;12775;46.994;15.498;2023-07-31T04:48:31;5.16;;;2.82;;
1987;SDS011;12775;46.994;15.498;2023-07-31T04:50:58;11.06;;;3.10;;
1987;SDS011;12775;46.994;15.498;2023-07-31T04:53:25;6.70;;;3.10;;
1987;SDS011;12775;46.994;15.498;2023-07-31T04:55:51;11.06;;;3.36;;
1987;SDS011;12775;46.994;15.498;2023-07-31T04:58:18;14.36;;;3.28;;
1987;SDS011;12775;46.994;15.498;2023-07-31T05:00:44;7.02;;;2.86;;
1987;SDS011;12775;46.994;15.498;2023-07-31T05:03:11;9.14;;;2.66;;
1987;SDS011;12775;46.994;15.498;2023-07-31T05:05:38;14.44;;;2.98;;
1987;SDS011;12775;46.994;15.498;2023-07-31T05:08:04;3.08;;;2.68;;
1987;SDS011;12775;46.994;15.498;2023-07-31T05:10:31;11.22;;;4.26;;
1987;SDS011;12775;46.994;15.498;2023-07-31T05:12:57;9.34;;;5.58;;
1987;SDS011;12775;46.994;15.498;2023-07-31T05:15:24;6.78;;;4.54;;
1987;SDS011;12775;46.994;15.498;2023-07-31T05:17:51;11.20;;;5.24;;
1987;SDS011;12775;46.994;15.498;2023-07-31T05:20:17;14.78;;;4.42;;
1987;SDS011;12775;46.994;15.498;2023-07-31T05:22:44;6.22;;;4.08;;
1987;SDS011;12775;46.994;15.498;2023-07-31T05:25:10;7.52;;;4.02;;
1987;SDS011;12775;46.994;15.498;2023-07-31T05:27:37;16.06;;;5.04;;
1987;SDS011;12775;46.994;15.498;2023-07-31T05:30:04;3.90;;;3.50;;
1987;SDS011;12775;46.994;15.498;2023-07-31T05:32:31;11.86;;;3.92;;
1987;SDS011;12775;46.994;15.498;2023-07-31T05:34:58;10.72;;;4.30;;
1987;SDS011;12775;46.994;15.498;2023-07-31T05:37:24;14.52;;;5.56;;
1987;SDS011;12775;46.994;15.498;2023-07-31T05:39:51;5.24;;;3.22;;
1987;SDS011;12775;46.994;15.498;2023-07-31T05:42:18;14.82;;;5.00;;
1987;SDS011;12775;46.994;15.498;2023-07-31T05:44:45;14.12;;;4.62;;
1987;SDS011;12775;46.994;15.498;2023-07-31T05:47:12;5.94;;;4.10;;
1987;SDS011;12775;46.994;15.498;2023-07-31T05:49:38;14.42;;;4.68;;
1987;SDS011;12775;46.994;15.498;2023-07-31T05:52:05;8.90;;;4.62;;
1987;SDS011;12775;46.994;15.498;2023-07-31T05:54:32;11.76;;;5.36;;
1987;SDS011;12775;46.994;15.498;2023-07-31T05:56:58;6.98;;;5.08;;
1987;SDS011;12775;46.994;15.498;2023-07-31T05:59:25;7.60;;;5.18;;
1987;SDS011;12775;46.994;15.498;2023-07-31T06:01:52;5.20;;;4.70;;
1987;SDS011;12775;46.994;15.498;2023-07-31T06:04:19;4.62;;;4.22;;
1987;SDS011;12775;46.994;15.498;2023-07-31T06:06:46;4.94;;;4.46;;
1987;SDS011;12775;46.994;15.498;2023-07-31T06:09:12;4.66;;;4.26;;
1987;SDS011;12775;46.994;15.498;2023-07-31T06:11:39;5.78;;;4.54;;
1987;SDS011;12775;46.994;15.498;2023-07-31T06:14:05;8.14;;;4.66;;
1987;SDS011;12775;46.994;15.498;2023-07-31T06:16:32;5.70;;;5.08;;
1987;SDS011;12775;46.994;15.498;2023-07-31T06:18:59;6.42;;;4.70;;
1987;SDS011;12775;46.994;15.498;2023-07-31T06:21:25;6.62;;;6.00;;
1987;SDS011;12775;46.994;15.498;2023-07-31T06:23:52;4.72;;;4.32;;
1987;SDS011;12775;46.994;15.498;2023-07-31T06:26:18;5.66;;;5.04;;
1987;SDS011;12775;46.994;15.498;2023-07-31T06:28:45;5.12;;;4.62;;
1987;SDS011;12775;46.994;15.498;2023-07-31T06:31:12;4.12;;;3.82;;
1987;SDS011;12775;46.994;15.498;2023-07-31T06:33:38;5.96;;;4.70;;
1987;SDS011;12775;46.994;15.498;2023-07-31T06:36:05;4.40;;;4.00;;
1987;SDS011;12775;46.994;15.498;2023-07-31T06:38:31;6.40;;;3.64;;
1987;SDS011;12775;46.994;15.498;2023-07-31T06:40:58;5.32;;;3.86;;
1987;SDS011;12775;46.994;15.498;2023-07-31T06:43:25;3.44;;;3.14;;
1987;SDS011;12775;46.994;15.498;2023-07-31T06:45:51;4.36;;;3.66;;
1987;SDS011;12775;46.994;15.498;2023-07-31T06:48:18;2.84;;;2.64;;
1987;SDS011;12775;46.994;15.498;2023-07-31T06:50:44;3.74;;;3.22;;
1987;SDS011;12775;46.994;15.498;2023-07-31T06:53:11;2.92;;;2.62;;
1987;SDS011;12775;46.994;15.498;2023-07-31T06:55:38;3.68;;;2.52;;
1987;SDS011;12775;46.994;15.498;2023-07-31T06:58:04;4.74;;;3.16;;
1987;SDS011;12775;46.994;15.498;2023-07-31T07:00:31;4.66;;;2.62;;
1987;SDS011;12775;46.994;15.498;2023-07-31T07:02:57;4.12;;;3.08;;
1987;SDS011;12775;46.994;15.498;2023-07-31T07:05:24;3.54;;;2.84;;
1987;SDS011;12775;46.994;15.498;2023-07-31T07:07:51;2.72;;;2.52;;
1987;SDS011;12775;46.994;15.498;2023-07-31T07:10:17;5.58;;;2.42;;
1987;SDS011;12775;46.994;15.498;2023-07-31T07:12:44;3.14;;;2.84;;
1987;SDS011;12775;46.994;15.498;2023-07-31T07:15:10;3.72;;;3.04;;
1987;SDS011;12775;46.994;15.498;2023-07-31T07:17:39;2.42;;;2.22;;
1987;SDS011;12775;46.994;15.498;2023-07-31T07:20:09;2.50;;;2.30;;
1987;SDS011;12775;46.994;15.498;2023-07-31T07:22:35;2.98;;;2.10;;
1987;SDS011;12775;46.994;15.498;2023-07-31T07:25:03;3.60;;;2.26;;
1987;SDS011;12775;46.994;15.498;2023-07-31T07:27:30;2.64;;;2.44;;
1987;SDS011;12775;46.994;15.498;2023-07-31T07:29:57;2.36;;;2.16;;
1987;SDS011;12775;46.994;15.498;2023-07-31T07:32:24;2.64;;;2.44;;
1987;SDS011;12775;46.994;15.498;2023-07-31T07:34:50;5.06;;;2.92;;
1987;SDS011;12775;46.994;15.498;2023-07-31T07:37:17;4.52;;;3.02;;
1987;SDS011;12775;46.994;15.498;2023-07-31T07:39:44;2.36;;;2.16;;
1987;SDS011;12775;46.994;15.498;2023-07-31T07:42:10;2.80;;;2.56;;
1987;SDS011;12775;46.994;15.498;2023-07-31T07:44:37;2.66;;;2.22;;
1987;SDS011;12775;46.994;15.498;2023-07-31T07:47:04;4.48;;;2.32;;
1987;SDS011;12775;46.994;15.498;2023-07-31T07:49:33;2.14;;;1.94;;
1987;SDS011;12775;46.994;15.498;2023-07-31T07:51:58;3.08;;;2.78;;
1987;SDS011;12775;46.994;15.498;2023-07-31T07:54:25;2.56;;;2.36;;
1987;SDS011;12775;46.994;15.498;2023-07-31T07:56:52;2.20;;;1.98;;
1987;SDS011;12775;46.994;15.498;2023-07-31T07:59:19;3.36;;;2.48;;
1987;SDS011;12775;46.994;15.498;2023-07-31T08:01:46;2.46;;;2.26;;
1987;SDS011;12775;46.994;15.498;2023-07-31T08:04:12;3.52;;;2.06;;
1987;SDS011;12775;46.994;15.498;2023-07-31T08:06:39;2.50;;;2.30;;
1987;SDS011;12775;46.994;15.498;2023-07-31T08:09:06;2.20;;;2.00;;
1987;SDS011;12775;46.994;15.498;2023-07-31T08:11:33;2.22;;;2.02;;
1987;SDS011;12775;46.994;15.498;2023-07-31T08:14:00;2.12;;;1.92;;
1987;SDS011;12775;46.994;15.498;2023-07-31T08:16:26;2.52;;;2.26;;
1987;SDS011;12775;46.994;15.498;2023-07-31T08:18:54;2.98;;;2.78;;
1987;SDS011;12775;46.994;15.498;2023-07-31T08:21:21;2.42;;;2.24;;
1987;SDS011;12775;46.994;15.498;2023-07-31T08:23:48;3.12;;;2.24;;
1987;SDS011;12775;46.994;15.498;2023-07-31T08:26:16;2.48;;;2.28;;
1987;SDS011;12775;46.994;15.498;2023-07-31T08:28:43;6.42;;;2.12;;
1987;SDS011;12775;46.994;15.498;2023-07-31T08:31:10;2.86;;;2.50;;
1987;SDS011;12775;46.994;15.498;2023-07-31T08:33:38;3.90;;;2.32;;
1987;SDS011;12775;46.994;15.498;2023-07-31T08:36:04;3.10;;;2.42;;
1987;SDS011;12775;46.994;15.498;2023-07-31T08:38:31;2.52;;;2.32;;
1987;SDS011;12775;46.994;15.498;2023-07-31T08:40:58;2.56;;;1.96;;
1987;SDS011;12775;46.994;15.498;2023-07-31T08:43:25;3.30;;;2.68;;
1987;SDS011;12775;46.994;15.498;2023-07-31T08:45:52;2.70;;;2.50;;
1987;SDS011;12775;46.994;15.498;2023-07-31T08:48:19;3.08;;;2.30;;
1987;SDS011;12775;46.994;15.498;2023-07-31T08:50:46;2.82;;;1.90;;
1987;SDS011;12775;46.994;15.498;2023-07-31T08:53:12;3.20;;;2.30;;
1987;SDS011;12775;46.994;15.498;2023-07-31T08:55:39;2.84;;;1.88;;
1987;SDS011;12775;46.994;15.498;2023-07-31T08:58:05;2.58;;;2.38;;
1987;SDS011;12775;46.994;15.498;2023-07-31T09:00:32;1.96;;;1.80;;
1987;SDS011;12775;46.994;15.498;2023-07-31T09:03:02;2.46;;;2.04;;
1987;SDS011;12775;46.994;15.498;2023-07-31T09:05:29;2.34;;;2.24;;
1987;SDS011;12775;46.994;15.498;2023-07-31T09:07:55;2.30;;;2.10;;
1987;SDS011;12775;46.994;15.498;2023-07-31T09:10:22;2.70;;;2.50;;
1987;SDS011;12775;46.994;15.498;2023-07-31T09:12:49;3.34;;;1.92;;
1987;SDS011;12775;46.994;15.498;2023-07-31T09:15:16;2.06;;;1.94;;
1987;SDS011;12775;46.994;15.498;2023-07-31T09:17:42;2.46;;;2.26;;
1987;SDS011;12775;46.994;15.498;2023-07-31T09:22:41;2.40;;;2.12;;
1987;SDS011;12775;46.994;15.498;2023-07-31T09:25:14;2.82;;;2.62;;
1987;SDS011;12775;46.994;15.498;2023-07-31T09:27:49;2.16;;;2.02;;
1987;SDS011;12775;46.994;15.498;2023-07-31T09:30:16;1.90;;;1.80;;
1987;SDS011;12775;46.994;15.498;2023-07-31T09:32:43;1.96;;;1.86;;
1987;SDS011;12775;46.994;15.498;2023-07-31T09:35:14;1.72;;;1.62;;
1987;SDS011;12775;46.994;15.498;2023-07-31T09:37:47;3.62;;;2.38;;
1987;SDS011;12775;46.994;15.498;2023-07-31T09:40:12;5.86;;;2.18;;
1987;SDS011;12775;46.994;15.498;2023-07-31T09:42:38;1.70;;;1.60;;
1987;SDS011;12775;46.994;15.498;2023-07-31T09:45:07;2.16;;;1.96;;
1987;SDS011;12775;46.994;15.498;2023-07-31T09:47:33;1.86;;;1.72;;
1987;SDS011;12775;46.994;15.498;2023-07-31T09:49:59;3.34;;;2.44;;
1987;SDS011;12775;46.994;15.498;2023-07-31T09:52:26;3.68;;;2.28;;
1987;SDS011;12775;46.994;15.498;2023-07-31T09:54:53;5.12;;;2.14;;
1987;SDS011;12775;46.994;15.498;2023-07-31T09:57:21;2.38;;;2.16;;
1987;SDS011;12775;46.994;15.498;2023-07-31T09:59:47;2.02;;;1.92;;
1987;SDS011;12775;46.994;15.498;2023-07-31T10:02:14;2.74;;;2.52;;
1987;SDS011;12775;46.994;15.498;2023-07-31T10:04:40;2.32;;;2.12;;
1987;SDS011;12775;46.994;15.498;2023-07-31T10:07:06;2.76;;;2.22;;
1987;SDS011;12775;46.994;15.498;2023-07-31T10:09:33;2.60;;;2.40;;
1987;SDS011;12775;46.994;15.498;2023-07-31T10:12:00;2.08;;;1.88;;
1987;SDS011;12775;46.994;15.498;2023-07-31T10:14:26;2.68;;;2.42;;
1987;SDS011;12775;46.994;15.498;2023-07-31T10:16:53;2.32;;;2.12;;
1987;SDS011;12775;46.994;15.498;2023-07-31T10:19:20;2.98;;;2.62;;
1987;SDS011;12775;46.994;15.498;2023-07-31T10:21:46;2.22;;;2.02;;
1987;SDS011;12775;46.994;15.498;2023-07-31T10:24:13;2.38;;;2.12;;
1987;SDS011;12775;46.994;15.498;2023-07-31T10:26:39;4.12;;;2.70;;
1987;SDS011;12775;46.994;15.498;2023-07-31T10:29:06;5.68;;;2.80;;
1987;SDS011;12775;46.994;15.498;2023-07-31T10:31:34;2.88;;;2.68;;
1987;SDS011;12775;46.994;15.498;2023-07-31T10:34:01;2.42;;;2.22;;
1987;SDS011;12775;46.994;15.498;2023-07-31T10:36:27;2.16;;;1.96;;
1987;SDS011;12775;46.994;15.498;2023-07-31T10:38:55;3.80;;;2.78;;
1987;SDS011;12775;46.994;15.498;2023-07-31T10:41:27;2.24;;;2.10;;
1987;SDS011;12775;46.994;15.498;2023-07-31T10:43:50;2.10;;;1.98;;
1987;SDS011;12775;46.994;15.498;2023-07-31T10:46:16;3.30;;;2.40;;
1987;SDS011;12775;46.994;15.498;2023-07-31T10:48:44;2.18;;;1.98;;
1987;SDS011;12775;46.994;15.498;2023-07-31T10:51:11;3.12;;;1.90;;
1987;SDS011;12775;46.994;15.498;2023-07-31T10:53:38;3.32;;;3.02;;
1987;SDS011;12775;46.994;15.498;2023-07-31T10:56:06;3.12;;;2.64;;
1987;SDS011;12775;46.994;15.498;2023-07-31T10:58:32;2.90;;;2.70;;
1987;SDS011;12775;46.994;15.498;2023-07-31T11:01:00;3.38;;;3.08;;
1987;SDS011;12775;46.994;15.498;2023-07-31T11:03:26;2.64;;;2.44;;
1987;SDS011;12775;46.994;15.498;2023-07-31T11:05:59;2.58;;;2.38;;
1987;SDS011;12775;46.994;15.498;2023-07-31T11:08:26;4.14;;;2.40;;
1987;SDS011;12775;46.994;15.498;2023-07-31T11:13:32;3.68;;;2.42;;
1987;SDS011;12775;46.994;15.498;2023-07-31T11:16:00;2.44;;;2.22;;
1987;SDS011;12775;46.994;15.498;2023-07-31T11:18:27;2.52;;;2.20;;
1987;SDS011;12775;46.994;15.498;2023-07-31T11:20:53;2.64;;;2.32;;
1987;SDS011;12775;46.994;15.498;2023-07-31T11:23:20;2.98;;;2.32;;
1987;SDS011;12775;46.994;15.498;2023-07-31T11:25:46;2.64;;;2.44;;
1987;SDS011;12775;46.994;15.498;2023-07-31T11:28:14;3.32;;;2.34;;
1987;SDS011;12775;46.994;15.498;2023-07-31T11:30:40;3.18;;;2.96;;
1987;SDS011;12775;46.994;15.498;2023-07-31T11:33:07;3.34;;;2.54;;
1987;SDS011;12775;46.994;15.498;2023-07-31T11:35:35;3.82;;;2.34;;
1987;SDS011;12775;46.994;15.498;2023-07-31T11:38:00;4.88;;;2.08;;
1987;SDS011;12775;46.994;15.498;2023-07-31T11:40:27;2.78;;;2.56;;
1987;SDS011;12775;46.994;15.498;2023-07-31T11:42:56;7.64;;;2.34;;
1987;SDS011;12775;46.994;15.498;2023-07-31T11:45:24;2.56;;;2.36;;
1987;SDS011;12775;46.994;15.498;2023-07-31T11:47:50;2.56;;;2.36;;
1987;SDS011;12775;46.994;15.498;2023-07-31T11:50:17;2.98;;;2.78;;
1987;SDS011;12775;46.994;15.498;2023-07-31T11:52:44;2.90;;;2.70;;
1987;SDS011;12775;46.994;15.498;2023-07-31T11:55:11;5.70;;;2.60;;
1987;SDS011;12775;46.994;15.498;2023-07-31T11:57:38;3.14;;;2.84;;
1987;SDS011;12775;46.994;15.498;2023-07-31T12:00:04;2.94;;;2.64;;
1987;SDS011;12775;46.994;15.498;2023-07-31T12:02:32;3.26;;;2.96;;
1987;SDS011;12775;46.994;15.498;2023-07-31T12:04:58;2.20;;;2.00;;
1987;SDS011;12775;46.994;15.498;2023-07-31T12:07:25;4.04;;;2.96;;
1987;SDS011;12775;46.994;15.498;2023-07-31T12:09:54;3.06;;;2.60;;
1987;SDS011;12775;46.994;15.498;2023-07-31T12:12:21;3.42;;;2.66;;
1987;SDS011;12775;46.994;15.498;2023-07-31T12:14:47;2.98;;;2.72;;
1987;SDS011;12775;46.994;15.498;2023-07-31T12:17:14;2.10;;;1.98;;
1987;SDS011;12775;46.994;15.498;2023-07-31T12:19:41;3.50;;;2.82;;
1987;SDS011;12775;46.994;15.498;2023-07-31T12:22:12;3.02;;;2.42;;
1987;SDS011;12775;46.994;15.498;2023-07-31T12:24:40;2.32;;;2.12;;
1987;SDS011;12775;46.994;15.498;2023-07-31T12:27:09;2.96;;;2.76;;
1987;SDS011;12775;46.994;15.498;2023-07-31T12:29:35;2.62;;;2.42;;
1987;SDS011;12775;46.994;15.498;2023-07-31T12:32:02;2.74;;;2.08;;
1987;SDS011;12775;46.994;15.498;2023-07-31T12:34:29;2.64;;;2.44;;
1987;SDS011;12775;46.994;15.498;2023-07-31T12:36:55;3.18;;;2.38;;
1987;SDS011;12775;46.994;15.498;2023-07-31T12:39:22;2.50;;;2.30;;
1987;SDS011;12775;46.994;15.498;2023-07-31T12:41:48;2.44;;;2.24;;
1987;SDS011;12775;46.994;15.498;2023-07-31T12:44:16;3.12;;;2.26;;
1987;SDS011;12775;46.994;15.498;2023-07-31T12:46:43;3.16;;;2.92;;
1987;SDS011;12775;46.994;15.498;2023-07-31T12:49:09;3.12;;;2.82;;
1987;SDS011;12775;46.994;15.498;2023-07-31T12:51:36;5.24;;;2.60;;
1987;SDS011;12775;46.994;15.498;2023-07-31T12:54:03;4.76;;;2.58;;
1987;SDS011;12775;46.994;15.498;2023-07-31T12:56:30;3.10;;;2.82;;
1987;SDS011;12775;46.994;15.498;2023-07-31T12:58:57;2.88;;;2.68;;
1987;SDS011;12775;46.994;15.498;2023-07-31T13:01:23;3.18;;;2.50;;
1987;SDS011;12775;46.994;15.498;2023-07-31T13:03:50;2.70;;;2.50;;
1987;SDS011;12775;46.994;15.498;2023-07-31T13:06:16;3.68;;;2.98;;
1987;SDS011;12775;46.994;15.498;2023-07-31T13:08:43;3.02;;;2.56;;
1987;SDS011;12775;46.994;15.498;2023-07-31T13:11:10;2.78;;;2.24;;
1987;SDS011;12775;46.994;15.498;2023-07-31T13:13:36;3.96;;;2.94;;
1987;SDS011;12775;46.994;15.498;2023-07-31T13:16:03;4.04;;;2.70;;
1987;SDS011;12775;46.994;15.498;2023-07-31T13:18:30;2.62;;;2.42;;
1987;SDS011;12775;46.994;15.498;2023-07-31T13:20:56;4.20;;;2.62;;
1987;SDS011;12775;46.994;15.498;2023-07-31T13:23:23;2.74;;;2.48;;
1987;SDS011;12775;46.994;15.498;2023-07-31T13:25:49;2.78;;;2.14;;
1987;SDS011;12775;46.994;15.498;2023-07-31T13:28:16;3.44;;;2.64;;
1987;SDS011;12775;46.994;15.498;2023-07-31T13:30:43;3.42;;;2.64;;
1987;SDS011;12775;46.994;15.498;2023-07-31T13:33:11;2.12;;;1.92;;
1987;SDS011;12775;46.994;15.498;2023-07-31T13:35:38;2.70;;;2.50;;
1987;SDS011;12775;46.994;15.498;2023-07-31T13:38:05;2.94;;;2.68;;
1987;SDS011;12775;46.994;15.498;2023-07-31T13:40:31;2.76;;;2.36;;
1987;SDS011;12775;46.994;15.498;2023-07-31T13:42:58;2.96;;;2.66;;
1987;SDS011;12775;46.994;15.498;2023-07-31T13:45:25;2.30;;;2.10;;
1987;SDS011;12775;46.994;15.498;2023-07-31T13:47:51;2.94;;;2.50;;
1987;SDS011;12775;46.994;15.498;2023-07-31T13:50:18;2.62;;;2.42;;
1987;SDS011;12775;46.994;15.498;2023-07-31T13:52:44;2.80;;;2.60;;
1987;SDS011;12775;46.994;15.498;2023-07-31T13:55:11;3.00;;;2.68;;
1987;SDS011;12775;46.994;15.498;2023-07-31T13:57:38;2.98;;;2.34;;
1987;SDS011;12775;46.994;15.498;2023-07-31T14:00:04;3.24;;;2.94;;
1987;SDS011;12775;46.994;15.498;2023-07-31T14:02:32;5.04;;;2.30;;
1987;SDS011;12775;46.994;15.498;2023-07-31T14:04:58;2.64;;;2.44;;
1987;SDS011;12775;46.994;15.498;2023-07-31T14:07:26;3.02;;;2.80;;
1987;SDS011;12775;46.994;15.498;2023-07-31T14:09:52;2.46;;;2.26;;
1987;SDS011;12775;46.994;15.498;2023-07-31T14:12:19;2.94;;;2.62;;
1987;SDS011;12775;46.994;15.498;2023-07-31T14:14:45;2.68;;;2.48;;
1987;SDS011;12775;46.994;15.498;2023-07-31T14:17:12;2.90;;;2.70;;
1987;SDS011;12775;46.994;15.498;2023-07-31T14:19:39;3.08;;;2.44;;
1987;SDS011;12775;46.994;15.498;2023-07-31T14:22:05;2.88;;;2.20;;
1987;SDS011;12775;46.994;15.498;2023-07-31T14:24:32;3.96;;;3.64;;
1987;SDS011;12775;46.994;15.498;2023-07-31T14:26:59;2.40;;;2.26;;
1987;SDS011;12775;46.994;15.498;2023-07-31T14:29:26;2.74;;;2.54;;
1987;SDS011;12775;46.994;15.498;2023-07-31T14:31:53;3.02;;;2.80;;
1987;SDS011;12775;46.994;15.498;2023-07-31T14:34:20;5.62;;;3.18;;
1987;SDS011;12775;46.994;15.498;2023-07-31T14:36:47;2.30;;;2.12;;
1987;SDS011;12775;46.994;15.498;2023-07-31T14:39:13;2.82;;;2.62;;
1987;SDS011;12775;46.994;15.498;2023-07-31T14:41:41;3.58;;;2.80;;
1987;SDS011;12775;46.994;15.498;2023-07-31T14:44:07;4.46;;;2.70;;
1987;SDS011;12775;46.994;15.498;2023-07-31T14:46:35;2.66;;;2.28;;
1987;SDS011;12775;46.994;15.498;2023-07-31T14:49:01;4.96;;;2.72;;
1987;SDS011;12775;46.994;15.498;2023-07-31T14:51:28;3.02;;;2.50;;